Cedarville, OH (45314)

2:12 AM EDT on September 16, 2014 (GMT -0400)
Springfield-Beckley Municipal | Change Station
CLOSE
Current Station
Airport
Location: Springfield,
Elevation: 1050 ft
Nearby Weather Stations

Elev 1050 ft 39.84 °N, 83.84 °W | Updated 16 minutes ago

Mostly Cloudy
Mostly Cloudy
57 °F
Feels Like 57 °F
N
5
Wind Variable Wind from Variable

Today
High -- | Low -- °F
--% Chance of Precip.
Yesterday
High -- | Low -- °F
Precip. -- in
7:17 AM 7:42 PM
Waning Gibbous, 48% visible
Pressure 30.12 in
Visibility 5.0 miles
Clouds Scattered Clouds 600 ft
Mostly Cloudy 1100 ft
Overcast 1700 ft
Dew Point 57 °F
Humidity 100%
Rainfall 0.02 in
Snow Depth Not available.
UV 0 out of 12
Pollen 6.00 out of 12
Ozone Good
PM2.5 Good
Flu Activity Not available.
METAR KSGH 160556Z AUTO VRB04KT 5SM BR SCT006 BKN011 OVC017 14/14 A3013 RMK AO2 50001 60002 T01380138 10150 20138 RAE25 P0001 SLP199

More Conditions Fewer Conditions

Pressure 30.12 in
Visibility 5.0 miles
Clouds Scattered Clouds 600 ft
Mostly Cloudy 1100 ft
Overcast 1700 ft
Dew Point 57 °F
Humidity 100%
Rainfall 0.02 in
Snow Depth Not available.
UV 0 out of 12
Pollen 6.00 out of 12
Ozone Good
PM2.5 Good
Flu Activity Not available.
METAR KSGH 160556Z AUTO VRB04KT 5SM BR SCT006 BKN011 OVC017 14/14 A3013 RMK AO2 50001 60002 T01380138 10150 20138 RAE25 P0001 SLP199

More Conditions Fewer Conditions

10-Day Weather Forecast

Almanac

Astronomy

Sep. 16, 2014 Rise Set
Actual Time 7:17 AM EDT 7:42 PM EDT
Civil Twilight 6:50 AM EDT 8:09 PM EDT
Nautical Twilight 6:18 AM EDT 8:40 PM EDT
Astronomical Twilight 5:45 AM EDT 9:13 PM EDT
Moon 12:26 AM EDT 3:04 PM EDT
Length of Visible Light 13h 19m
Length of Day
12h 24m
Tomorrow will be 2m 34s shorter.
Waning Gibbous, 48% of the Moon is Illuminated
Today
Waning Gibbous
Sep 24
New
Oct 1
First Quarter
Oct 8
Full
Oct 15
Last Quarter

Today's Extremes

State Highs State Lows

Community

WunderPhotos

Upload Photos

1,753,702 photos uploaded!

Nearby

Air Quality

  Air Quality AQ Index Pollutant
Yesterday Good
PM2.5
Yesterday Good
OZONE
Current Good
PM2.5
Current Good
OZONE
Tuesday Good
OZONE
Tuesday Good
PM2.5
Wednesday Good
OZONE
Wednesday Good
PM2.5
Thursday Good
PM2.5
Thursday Good
OZONE
Friday Good
PM2.5
Friday Good
OZONE

Snow Depth

Station Depth Elevation
No new snow has been reported.

Earthquake Activity

City Distance Mag. Time & Date
No recent earthquake activity has been reported nearby.
Minimum magnitude displayed is 2.5.

Coastal Water Temperatures

Place Temperature
No Stations Reporting

Nearby Weather Stations